Wetaskiwin, Canada
Current Conditions -  °F | °C
As of 5:00 PM on Saturday 22 Nov 2014 (Local Time) from CYEG Reporting Station
Light Snow Light Snow  
Wind Chill: 13°   Ceiling: 4400
Heat Index: 23°   Visibility: 4mi
Dew Point: 19°   Wind: 9mph
Humidity: 86%   Direction: 340°NNW
Pressure: 29.43"   Gusts: NA
Location:  52.97°N, 113.38°W
Report Text: CYEG 230000Z 34008KT 4SM -SN SCT018 OVC044 M05/M07 A2943 RMK SC3SC5 SLP998
Loading
Personal Weather Stations






























Interactive Weather Map New forecast layout! Learn more

10-Day Weather Forecast

Advertisements
Track Severe Weather on mobile